Airfield :
LOGIN :

Register | Disclaimer

   EN    FR    IT 

 










Legend :    VFR   Marginal VFR   IFR   Intensive IFR   Very Intensive IFR
Visi :
Ceiling :
>= 8 km
>= 3000ft
5 to 8 km
1000 to 3000 ft
1500m to 5 km
500 to 1000 ft
800 to 1500m
200 to 500 ft
< 800m
< 200 ft
Symbols :   Thunderstorms  Fog  Heavy snow  Heavy precipitations  Wind > 20 kt
SIGMETs :     Misc.  Thunderstorms  Icing  Turbulence  Mountain Waves  Volcanic Ashes







- Airport Elevation : 154 ft
- IATA code : SZZ


EPSC - Szczecin Goleniow

CURRENT METAR :
  • 181530Z 14007KT CAVOK 09/04 Q1017

EXPIRED METARs :
  • 181500Z 15006KT CAVOK 10/04 Q1017
  • 181430Z 15006KT CAVOK 10/04 Q1017
  • 181400Z 15007KT CAVOK 11/04 Q1018
  • 181330Z 14008KT CAVOK 10/03 Q1018
  • 181300Z 16006KT CAVOK 10/03 Q1018

TAF TAF EPSC
Valid from the 18 at 12:00 until the 19 at 12:00 UTC


181130Z 1812/1912 16007KT CAVOK
TEMPO 1817/1908 4000 BR
PROB40
TEMPO 1821/1908 1400 BR OVC002
No reported NOTAMs for that airfield.



MET'MAP, your aeronautical weather chart ! - Copyright ORBIFLY December 2007 - Disclaimer

ORBIFLY MET'MAP TEAM :

Programming & Development : Alexandra Zaïnal
Concept & Development : Baudouin d'Aumeries
Co-Development & Prog : Marc-Olivier Méhu
Technical & hardware support : Manuel Goepfert

Contact : metmap@orbifly.com




SOURCES & CREDITS :

   NOAA